Time;durP1;ratioP1;P1;durP2;ratioP2;P2;SDS_P1;SDS_P2;PMS_P1;PMS_P2;Temp;Humidity;BMP_temperature;BMP_pressure;BME280_temperature;BME280_humidity;BME280_pressure;Samples;Min_cycle;Max_cycle;Signal;HPM_P1;HPM_P2
2022/09/17 00:02:24;;;;;;;15.15;2.60;;;12.60;99.90;;;;;;5133826;27;20489;-61
2022/09/17 00:04:50;;;;;;;23.42;3.50;;;12.20;99.90;;;;;;5133611;27;20043;-62
2022/09/17 00:07:16;;;;;;;;;;;12.80;99.90;;;;;;5133468;27;20506;-63
2022/09/17 00:09:42;;;;;;;23.83;3.33;;;12.40;99.90;;;;;;5133038;27;19924;-63
2022/09/17 00:12:08;;;;;;;20.00;3.00;;;12.50;99.90;;;;;;5133522;27;20043;-63
2022/09/17 00:14:34;;;;;;;18.00;2.78;;;12.80;99.90;;;;;;5133068;27;20119;-61
2022/09/17 00:17:00;;;;;;;22.48;3.50;;;12.10;99.90;;;;;;5132161;27;20043;-63
2022/09/17 00:19:25;;;;;;;25.60;3.53;;;12.90;99.90;;;;;;5133488;27;20084;-61
2022/09/17 00:21:51;;;;;;;21.55;3.33;;;12.20;99.90;;;;;;5133187;27;20051;-62
2022/09/17 00:24:18;;;;;;;27.95;3.45;;;12.20;99.90;;;;;;5133157;27;20135;-63
2022/09/17 00:26:44;;;;;;;21.27;3.05;;;12.10;99.90;;;;;;5133061;27;20058;-63
2022/09/17 00:29:11;;;;;;;13.60;2.85;;;12.30;99.90;;;;;;5132815;27;20399;-62
2022/09/17 00:31:37;;;;;;;16.02;2.47;;;12.70;99.90;;;;;;5133209;27;20137;-61
2022/09/17 00:34:04;;;;;;;17.02;2.63;;;12.70;99.90;;;;;;5133007;27;20051;-63
2022/09/17 00:36:30;;;;;;;24.80;3.53;;;12.90;99.90;;;;;;5132334;27;20576;-61
2022/09/17 00:38:58;;;;;;;23.50;3.72;;;12.80;99.90;;;;;;5132581;27;20094;-61
2022/09/17 00:41:27;;;;;;;18.10;2.70;;;13.00;99.90;;;;;;5131388;27;20047;-63
2022/09/17 00:43:56;;;;;;;19.88;3.50;;;12.90;99.90;;;;;;5133209;27;20047;-62
2022/09/17 00:46:42;;;;;;;14.68;2.67;;;13.30;99.90;;;;;;5133137;27;20035;-61
2022/09/17 00:49:27;;;;;;;18.23;2.72;;;13.20;99.90;;;;;;5132862;27;20152;-61
2022/09/17 00:52:06;;;;;;;12.10;2.30;;;13.00;99.90;;;;;;5132597;27;20035;-61
2022/09/17 00:54:33;;;;;;;11.73;2.10;;;12.90;99.90;;;;;;5133186;27;20406;-61
2022/09/17 00:56:58;;;;;;;13.63;2.67;;;12.80;99.90;;;;;;5132736;27;20047;-63
2022/09/17 00:59:25;;;;;;;14.30;2.28;;;13.40;99.90;;;;;;5132277;27;20519;-63
2022/09/17 01:01:51;;;;;;;14.95;2.70;;;13.10;99.90;;;;;;5132803;27;20622;-62
2022/09/17 01:04:19;;;;;;;10.50;2.10;;;13.00;99.90;;;;;;5132583;27;20054;-61
2022/09/17 01:07:08;;;;;;;14.93;3.00;;;12.90;99.90;;;;;;5132930;27;20074;-62
2022/09/17 01:09:55;;;;;;;18.88;3.13;;;13.00;99.90;;;;;;5133131;27;20453;-61
2022/09/17 01:12:47;;;;;;;17.08;2.70;;;13.10;99.90;;;;;;5133241;27;20039;-62
2022/09/17 01:15:48;;;;;;;15.52;2.45;;;13.10;99.90;;;;;;5123352;28;20087;-62
2022/09/17 01:18:21;;;;;;;16.25;2.60;;;13.20;99.90;;;;;;5132708;27;20043;-61
2022/09/17 01:21:21;;;;;;;19.83;3.13;;;12.90;99.90;;;;;;5132577;27;20096;-61
2022/09/17 01:24:01;;;;;;;18.85;2.83;;;13.10;99.90;;;;;;5131373;28;20148;-62
2022/09/17 01:26:34;;;;;;;16.38;2.80;;;13.30;99.90;;;;;;5132546;27;20047;-62
2022/09/17 01:29:23;;;;;;;10.38;2.38;;;12.90;99.90;;;;;;5135672;27;20055;-64
2022/09/17 01:32:00;;;;;;;11.82;2.10;;;12.50;99.90;;;;;;5135953;27;20098;-62
2022/09/17 01:35:00;;;;;;;10.27;2.30;;;12.90;99.90;;;;;;5136062;27;20054;-63
2022/09/17 01:37:58;;;;;;;12.73;2.15;;;12.50;99.90;;;;;;5136744;27;20535;-63
2022/09/17 01:40:40;;;;;;;15.55;2.20;;;12.70;99.90;;;;;;5136783;27;20047;-62
2022/09/17 01:43:06;;;;;;;18.90;2.50;;;12.60;99.90;;;;;;5136387;27;20039;-64
2022/09/17 01:45:42;;;;;;;20.20;2.72;;;13.10;99.90;;;;;;5136772;27;20047;-63
2022/09/17 01:48:13;;;;;;;11.60;2.33;;;12.60;99.90;;;;;;5135875;27;20479;-62
2022/09/17 01:50:47;;;;;;;11.63;2.20;;;12.80;99.90;;;;;;5135670;27;20101;-63
2022/09/17 01:53:16;;;;;;;13.43;2.63;;;13.10;99.90;;;;;;5136223;27;20487;-61
2022/09/17 01:55:45;;;;;;;9.88;2.45;;;13.90;99.90;;;;;;5134637;27;20054;-62
2022/09/17 01:58:22;;;;;;;13.35;2.60;;;13.10;99.90;;;;;;5136189;27;20530;-62
2022/09/17 02:00:54;;;;;;;17.42;2.92;;;12.90;99.90;;;;;;5135241;27;20047;-61
2022/09/17 02:03:57;;;;;;;15.43;2.85;;;13.10;99.90;;;;;;5135591;27;20051;-63
2022/09/17 02:06:28;;;;;;;18.27;2.55;;;11.50;99.90;;;;;;5121904;27;20070;-61
2022/09/17 02:08:59;;;;;;;22.42;2.78;;;11.00;99.90;;;;;;5135882;27;20050;-60
2022/09/17 02:11:25;;;;;;;20.67;3.13;;;11.10;99.90;;;;;;5136226;27;20043;-61
2022/09/17 02:13:57;;;;;;;22.42;3.15;;;10.60;99.90;;;;;;5136181;27;20079;-62
2022/09/17 02:16:32;;;;;;;27.35;3.25;;;10.40;99.90;;;;;;5136029;27;20047;-63
2022/09/17 02:19:21;;;;;;;22.73;3.42;;;10.70;99.90;;;;;;5136116;27;20051;-67
2022/09/17 02:21:59;;;;;;;19.42;3.25;;;10.70;99.90;;;;;;5136080;27;20125;-61
2022/09/17 02:24:36;;;;;;;17.85;2.72;;;10.80;99.90;;;;;;5135978;27;20087;-64
2022/09/17 02:27:12;;;;;;;;;;;11.00;99.90;;;;;;5136445;27;20039;-61
2022/09/17 02:29:41;;;;;;;15.13;2.45;;;11.90;99.90;;;;;;5135949;27;19919;-61
2022/09/17 02:32:07;;;;;;;16.52;2.92;;;11.20;99.90;;;;;;5135542;27;20086;-60
2022/09/17 02:34:33;;;;;;;18.83;2.53;;;11.70;99.90;;;;;;5135826;27;20047;-61
2022/09/17 02:37:00;;;;;;;17.55;3.03;;;11.90;99.90;;;;;;5135862;27;20098;-64
2022/09/17 02:39:26;;;;;;;20.17;3.60;;;12.00;99.90;;;;;;5135510;27;20100;-61
2022/09/17 02:42:14;;;;;;;15.48;2.50;;;11.80;99.90;;;;;;5135688;27;20147;-62
2022/09/17 02:45:06;;;;;;;10.57;2.22;;;12.00;99.90;;;;;;5135478;27;20768;-61
2022/09/17 02:48:09;;;;;;;18.55;2.83;;;12.00;99.90;;;;;;5135025;27;20059;-61
2022/09/17 02:50:43;;;;;;;12.73;2.40;;;12.30;99.90;;;;;;5134971;27;20038;-61
2022/09/17 02:53:22;;;;;;;11.32;2.20;;;11.80;99.90;;;;;;5134977;27;20503;-62
2022/09/17 02:56:28;;;;;;;17.23;2.22;;;12.10;99.90;;;;;;5134243;27;20047;-61
2022/09/17 02:59:30;;;;;;;18.70;2.83;;;12.10;99.90;;;;;;5134614;27;20043;-63
2022/09/17 03:02:16;;;;;;;15.07;2.30;;;12.40;99.90;;;;;;5134012;27;20211;-64
2022/09/17 03:04:45;;;;;;;25.75;2.88;;;12.40;99.90;;;;;;5134826;27;20047;-62
2022/09/17 03:07:12;;;;;;;15.82;2.60;;;12.10;99.90;;;;;;5134556;27;20055;-61
2022/09/17 03:09:42;;;;;;;10.68;2.05;;;11.40;99.90;;;;;;5135025;27;20039;-60
2022/09/17 03:12:12;;;;;;;16.08;2.40;;;10.90;99.90;;;;;;5135092;27;20183;-61
2022/09/17 03:14:37;;;;;;;21.10;2.92;;;11.00;99.90;;;;;;5134844;27;20054;-61
2022/09/17 03:17:03;;;;;;;11.43;1.88;;;11.30;99.90;;;;;;5135037;27;20126;-60
2022/09/17 03:19:29;;;;;;;11.82;2.20;;;11.30;99.90;;;;;;5134936;27;20043;-61
2022/09/17 03:21:54;;;;;;;21.45;3.55;;;11.40;99.90;;;;;;5134922;27;20039;-62
2022/09/17 03:24:20;;;;;;;17.30;3.28;;;11.30;99.90;;;;;;5134870;27;20076;-61
2022/09/17 03:26:48;;;;;;;17.83;2.83;;;11.70;99.90;;;;;;5134814;27;20496;-65
2022/09/17 03:29:13;;;;;;;24.83;2.90;;;12.00;99.90;;;;;;5134565;27;20050;-62
2022/09/17 03:31:39;;;;;;;12.98;3.15;;;11.80;99.90;;;;;;5134700;27;20051;-61
2022/09/17 03:34:06;;;;;;;17.50;3.85;;;12.00;99.90;;;;;;5134661;27;20506;-60
2022/09/17 03:36:32;;;;;;;17.02;2.55;;;12.10;99.90;;;;;;5133340;27;20061;-62
2022/09/17 03:38:58;;;;;;;13.85;2.35;;;12.10;99.90;;;;;;5134610;27;20410;-64
2022/09/17 03:41:25;;;;;;;18.80;2.88;;;12.20;99.90;;;;;;5134506;27;20160;-61
2022/09/17 03:43:51;;;;;;;22.23;3.38;;;12.00;99.90;;;;;;5133185;27;20870;-60
2022/09/17 03:46:17;;;;;;;;;;;12.10;99.90;;;;;;5134670;27;20047;-61
2022/09/17 03:48:43;;;;;;;10.85;1.80;;;12.30;99.90;;;;;;5133049;27;19976;-61
2022/09/17 03:51:08;;;;;;;8.77;1.77;;;12.30;99.90;;;;;;5133666;27;20042;-61
2022/09/17 03:53:34;;;;;;;10.23;1.98;;;12.10;99.90;;;;;;5134156;27;20432;-61
2022/09/17 03:56:01;;;;;;;12.80;2.03;;;12.20;99.90;;;;;;5133978;27;20046;-60
2022/09/17 03:58:28;;;;;;;16.63;2.53;;;12.40;99.90;;;;;;5133902;27;20179;-61
2022/09/17 04:00:56;;;;;;;15.40;2.40;;;12.60;99.90;;;;;;5132852;27;20050;-64
2022/09/17 04:03:23;;;;;;;14.23;2.38;;;12.20;99.90;;;;;;5133806;27;20070;-61
2022/09/17 04:05:50;;;;;;;13.63;2.22;;;12.40;99.90;;;;;;5132571;27;20046;-61
2022/09/17 04:08:16;;;;;;;18.73;2.78;;;12.30;99.90;;;;;;5133621;27;20180;-61
2022/09/17 04:10:43;;;;;;;20.98;2.53;;;12.10;99.90;;;;;;5132306;27;20509;-63
2022/09/17 04:13:09;;;;;;;15.13;2.70;;;12.20;99.90;;;;;;5132989;27;20051;-61
2022/09/17 04:15:35;;;;;;;15.40;2.58;;;12.30;99.90;;;;;;5133852;27;20096;-62
2022/09/17 04:18:01;;;;;;;19.10;3.38;;;12.00;99.90;;;;;;5133225;27;20039;-61
2022/09/17 04:20:26;;;;;;;19.60;3.08;;;12.40;99.90;;;;;;5133248;27;20069;-61
2022/09/17 04:22:53;;;;;;;15.63;2.47;;;12.30;99.90;;;;;;5133502;27;20407;-61
2022/09/17 04:25:19;;;;;;;14.63;2.40;;;12.30;99.90;;;;;;5133331;27;20078;-61
2022/09/17 04:27:45;;;;;;;16.67;2.30;;;12.20;99.90;;;;;;5132346;27;20074;-61
2022/09/17 04:30:11;;;;;;;;;;;12.60;99.90;;;;;;5133545;27;20054;-61
2022/09/17 04:32:37;;;;;;;10.98;2.75;;;12.50;99.90;;;;;;5133176;27;20291;-62
2022/09/17 04:35:03;;;;;;;12.40;1.95;;;12.70;99.90;;;;;;5132654;27;20050;-63
2022/09/17 04:37:29;;;;;;;16.88;2.30;;;12.10;99.90;;;;;;5132658;27;20391;-63
2022/09/17 04:39:55;;;;;;;16.90;2.58;;;12.20;99.90;;;;;;5132746;27;20073;-62
2022/09/17 04:42:21;;;;;;;14.60;2.90;;;;;;;;;;5132476;27;20047;-60
2022/09/17 04:44:46;;;;;;;13.00;2.20;;;12.40;99.90;;;;;;5132676;27;20529;-62
2022/09/17 04:47:12;;;;;;;16.55;2.47;;;12.40;99.90;;;;;;5132548;27;20134;-63
2022/09/17 04:49:38;;;;;;;14.60;2.17;;;12.50;99.90;;;;;;5132605;27;20123;-62
2022/09/17 04:52:04;;;;;;;8.43;2.25;;;12.30;99.90;;;;;;5132204;27;20043;-62
2022/09/17 04:54:29;;;;;;;14.20;2.75;;;12.50;99.90;;;;;;5132591;27;20474;-60
2022/09/17 04:56:55;;;;;;;17.98;2.33;;;12.40;99.90;;;;;;5132504;27;20088;-62
2022/09/17 04:59:21;;;;;;;17.05;2.80;;;12.70;99.90;;;;;;5132560;27;20047;-61
2022/09/17 05:01:48;;;;;;;16.98;2.53;;;12.30;99.90;;;;;;5131190;27;20395;-61
2022/09/17 05:04:13;;;;;;;19.45;2.72;;;13.70;99.90;;;;;;5131664;27;20058;-64
2022/09/17 05:06:39;;;;;;;14.40;2.60;;;12.60;99.90;;;;;;5132810;27;20039;-61
2022/09/17 05:09:05;;;;;;;19.25;3.28;;;13.60;99.90;;;;;;5132484;27;20134;-64
2022/09/17 05:11:30;;;;;;;15.13;2.53;;;13.70;99.90;;;;;;5132070;27;20158;-64
2022/09/17 05:13:56;;;;;;;13.05;2.45;;;12.70;99.90;;;;;;5132078;27;20035;-62
2022/09/17 05:16:21;;;;;;;9.82;2.03;;;12.70;99.90;;;;;;5132136;28;20039;-60
2022/09/17 05:18:49;;;;;;;15.25;2.17;;;12.70;99.90;;;;;;5132966;27;20043;-63
2022/09/17 05:21:14;;;;;;;11.93;1.90;;;12.60;99.90;;;;;;5132287;27;20048;-60
2022/09/17 05:23:40;;;;;;;21.85;2.50;;;12.50;99.90;;;;;;5131998;27;20065;-64
2022/09/17 05:26:06;;;;;;;16.92;2.75;;;12.70;99.90;;;;;;5130865;28;20051;-61
2022/09/17 05:28:31;;;;;;;15.25;2.63;;;12.40;99.90;;;;;;5131877;27;20082;-62
2022/09/17 05:31:00;;;;;;;15.70;2.55;;;12.40;99.90;;;;;;5131596;28;20063;-61
2022/09/17 05:33:26;;;;;;;19.92;2.80;;;12.30;99.90;;;;;;5131694;27;20043;-61
2022/09/17 05:35:52;;;;;;;18.48;2.83;;;12.00;99.90;;;;;;5132602;27;20546;-60
2022/09/17 05:38:18;;;;;;;18.02;2.67;;;12.00;99.90;;;;;;5131804;28;20046;-62
2022/09/17 05:40:44;;;;;;;18.45;3.00;;;11.60;99.90;;;;;;5132111;28;20126;-62
2022/09/17 05:43:10;;;;;;;13.75;2.85;;;11.60;99.90;;;;;;5132718;27;20043;-62
2022/09/17 05:45:37;;;;;;;;;;;12.00;99.90;;;;;;5133136;27;20047;-62
2022/09/17 05:48:05;;;;;;;23.42;3.35;;;11.60;99.90;;;;;;5132001;27;20009;-62
2022/09/17 05:50:32;;;;;;;11.13;2.47;;;11.70;99.90;;;;;;5131758;27;20062;-60
2022/09/17 05:53:04;;;;;;;12.27;2.30;;;11.60;99.90;;;;;;5131840;27;20043;-60
2022/09/17 05:55:30;;;;;;;14.95;2.47;;;11.10;99.90;;;;;;5131525;27;20403;-60
2022/09/17 05:57:56;;;;;;;15.68;2.47;;;11.10;99.90;;;;;;5131894;27;20127;-61
2022/09/17 06:00:22;;;;;;;12.07;1.48;;;11.60;99.90;;;;;;5132206;28;20458;-61
2022/09/17 06:02:56;;;;;;;9.57;1.30;;;11.30;99.90;;;;;;5130614;28;20089;-66
2022/09/17 06:05:23;;;;;;;6.78;1.58;;;11.00;99.90;;;;;;5131943;28;20043;-60
2022/09/17 06:07:49;;;;;;;10.77;1.40;;;11.40;99.90;;;;;;5131838;27;20092;-62
2022/09/17 06:10:15;;;;;;;7.88;1.48;;;11.20;99.90;;;;;;5131558;27;20085;-64
2022/09/17 06:12:40;;;;;;;10.02;1.90;;;10.80;99.90;;;;;;5131460;28;20388;-61
2022/09/17 06:15:07;;;;;;;7.68;1.50;;;11.30;99.90;;;;;;5134551;27;20099;-60
2022/09/17 06:17:33;;;;;;;;;;;11.50;99.90;;;;;;5135862;27;20054;-61
2022/09/17 06:19:59;;;;;;;18.23;2.28;;;11.70;99.90;;;;;;5135236;27;20406;-62
2022/09/17 06:22:25;;;;;;;14.65;2.25;;;11.50;99.90;;;;;;5135232;27;20035;-63
2022/09/17 06:24:51;;;;;;;19.98;2.47;;;10.80;99.90;;;;;;5131247;27;20546;-69
2022/09/17 06:27:16;;;;;;;21.02;2.67;;;10.50;99.90;;;;;;5134328;27;20069;-61
2022/09/17 06:29:42;;;;;;;17.75;2.72;;;10.20;99.90;;;;;;5134654;27;20089;-61
2022/09/17 06:32:11;;;;;;;15.02;2.10;;;9.80;99.90;;;;;;5133362;27;20150;-62
2022/09/17 06:34:38;;;;;;;15.73;1.90;;;10.20;99.90;;;;;;5134522;27;20502;-60
2022/09/17 06:37:04;;;;;;;12.88;2.20;;;9.80;99.90;;;;;;5134274;27;20095;-61
2022/09/17 06:39:30;;;;;;;10.98;2.00;;;10.00;99.90;;;;;;5133641;27;20114;-61
2022/09/17 06:41:56;;;;;;;10.40;2.20;;;10.70;99.90;;;;;;5134231;27;20097;-66
2022/09/17 06:44:22;;;;;;;13.68;2.15;;;11.10;99.90;;;;;;5115741;27;20075;-68
2022/09/17 06:46:50;;;;;;;17.23;2.28;;;11.10;99.90;;;;;;5133947;27;20051;-61
2022/09/17 06:49:19;;;;;;;17.75;2.72;;;11.70;99.90;;;;;;5134324;27;20403;-61
2022/09/17 06:51:45;;;;;;;11.75;2.20;;;12.10;99.90;;;;;;5133967;27;20428;-61
2022/09/17 06:54:11;;;;;;;17.95;2.28;;;12.00;99.90;;;;;;5133263;27;20047;-60
2022/09/17 06:56:37;;;;;;;7.95;1.90;;;12.50;99.90;;;;;;5134094;27;20043;-60
2022/09/17 06:59:02;;;;;;;11.93;2.42;;;11.70;99.90;;;;;;5133994;27;20115;-67
2022/09/17 07:01:28;;;;;;;8.43;1.63;;;13.20;99.90;;;;;;5133795;27;20053;-72
2022/09/17 07:03:54;;;;;;;13.90;2.00;;;12.00;99.90;;;;;;5139747;27;20047;-62
2022/09/17 07:06:20;;;;;;;10.57;1.52;;;12.00;99.90;;;;;;5137701;27;21007;-62
2022/09/17 07:08:46;;;;;;;9.18;1.60;;;12.10;99.90;;;;;;5133541;27;20103;-62
2022/09/17 07:11:12;;;;;;;13.05;2.05;;;12.70;99.90;;;;;;5133188;27;20060;-61
2022/09/17 07:13:38;;;;;;;10.13;1.80;;;13.50;99.90;;;;;;5133540;27;20079;-60
2022/09/17 07:16:05;;;;;;;8.85;2.10;;;11.90;99.90;;;;;;5115472;27;20047;-65
2022/09/17 07:18:31;;;;;;;12.20;1.75;;;11.90;99.90;;;;;;5131541;27;20053;-72
2022/09/17 07:21:02;;;;;;;15.18;1.65;;;12.30;99.90;;;;;;5112718;27;20109;-63
2022/09/17 07:23:30;;;;;;;13.15;2.10;;;11.80;99.90;;;;;;5113540;28;20051;-63
2022/09/17 07:26:04;;;;;;;9.00;2.13;;;12.10;99.90;;;;;;5111429;28;20122;-61
2022/09/17 07:28:30;;;;;;;6.57;1.60;;;12.20;99.90;;;;;;5113739;28;20047;-61
2022/09/17 07:30:56;;;;;;;14.57;2.15;;;12.40;99.90;;;;;;5113362;28;20070;-61
2022/09/17 07:33:24;;;;;;;8.75;1.67;;;13.00;99.90;;;;;;5117215;27;20031;-60
2022/09/17 07:35:58;;;;;;;10.63;1.67;;;12.60;99.90;;;;;;5133839;27;20054;-61
2022/09/17 07:38:25;;;;;;;9.13;1.73;;;13.00;99.90;;;;;;5133635;27;20045;-67
2022/09/17 07:40:56;;;;;;;11.65;1.95;;;12.90;99.90;;;;;;5133385;27;20580;-66
2022/09/17 07:43:24;;;;;;;17.58;2.10;;;12.50;99.90;;;;;;5134053;27;20046;-61
2022/09/17 07:45:51;;;;;;;19.08;2.28;;;12.60;99.90;;;;;;5134217;27;20039;-61
2022/09/17 07:48:17;;;;;;;13.18;2.05;;;12.30;99.90;;;;;;5115596;27;20058;-63
2022/09/17 07:50:42;;;;;;;21.75;2.10;;;12.40;99.90;;;;;;5133779;27;20043;-62
2022/09/17 07:53:08;;;;;;;13.60;2.40;;;12.30;99.90;;;;;;5134028;27;20039;-61
2022/09/17 07:55:34;;;;;;;17.38;2.30;;;12.70;99.90;;;;;;5115607;27;20506;-61
2022/09/17 07:57:59;;;;;;;16.02;2.65;;;12.70;99.90;;;;;;5133443;27;20047;-67
2022/09/17 08:00:25;;;;;;;17.50;2.42;;;13.10;99.90;;;;;;5133104;27;20054;-62
2022/09/17 08:02:54;;;;;;;12.27;2.10;;;12.50;99.90;;;;;;5133535;27;20047;-60
2022/09/17 08:05:21;;;;;;;7.03;1.63;;;12.40;99.90;;;;;;5111399;27;20058;-61
2022/09/17 08:07:50;;;;;;;8.35;1.75;;;12.60;99.90;;;;;;5112774;28;20051;-62
2022/09/17 08:10:20;;;;;;;11.90;1.50;;;12.70;99.90;;;;;;5112831;28;20693;-62
2022/09/17 08:12:47;;;;;;;15.40;2.55;;;12.70;99.90;;;;;;5112613;28;20047;-62
2022/09/17 08:15:17;;;;;;;16.65;2.58;;;13.40;99.90;;;;;;5112540;28;20138;-60
2022/09/17 08:17:43;;;;;;;15.60;3.55;;;13.40;99.90;;;;;;5112626;28;20052;-61
2022/09/17 08:20:09;;;;;;;10.88;1.80;;;13.10;99.90;;;;;;5111932;28;20043;-62
2022/09/17 08:22:35;;;;;;;15.93;2.03;;;13.40;99.90;;;;;;5112525;28;20387;-63
2022/09/17 08:25:03;;;;;;;14.98;2.30;;;13.50;99.90;;;;;;5112325;28;20043;-61
2022/09/17 08:27:32;;;;;;;10.43;1.75;;;13.40;99.90;;;;;;5112096;28;20051;-61
2022/09/17 08:29:58;;;;;;;10.63;1.40;;;13.10;99.90;;;;;;5112556;28;20118;-61
2022/09/17 08:32:24;;;;;;;5.32;1.40;;;12.50;99.90;;;;;;5112210;28;20455;-62
2022/09/17 08:34:50;;;;;;;14.98;2.10;;;11.90;99.90;;;;;;5111916;28;20052;-67
2022/09/17 08:37:16;;;;;;;15.95;2.28;;;12.10;99.90;;;;;;5107565;27;20131;-62
2022/09/17 08:39:42;;;;;;;11.68;2.67;;;12.00;99.90;;;;;;5111249;28;20059;-61
2022/09/17 08:42:22;;;;;;;18.40;2.42;;;11.90;99.90;;;;;;5112077;28;20043;-61
2022/09/17 08:44:49;;;;;;;17.40;2.30;;;11.80;99.90;;;;;;5112141;28;20403;-61
2022/09/17 08:47:29;;;;;;;21.50;2.60;;;12.30;99.90;;;;;;5112013;28;20050;-61
2022/09/17 08:50:02;;;;;;;20.17;2.72;;;12.10;99.90;;;;;;5111819;28;20502;-63
2022/09/17 08:52:40;;;;;;;16.92;2.78;;;12.10;99.90;;;;;;5112291;28;20085;-61
2022/09/17 08:55:33;;;;;;;16.65;2.30;;;12.20;99.90;;;;;;5112329;28;20051;-62
2022/09/17 08:58:17;;;;;;;16.63;1.90;;;12.30;99.90;;;;;;5112849;28;20059;-61
2022/09/17 09:00:57;;;;;;;21.20;2.83;;;12.20;99.90;;;;;;5129283;27;20517;-61
2022/09/17 09:03:50;;;;;;;13.80;2.47;;;12.00;99.90;;;;;;5132454;27;20360;-60
2022/09/17 09:06:18;;;;;;;10.80;1.70;;;12.30;99.90;;;;;;5132334;27;20059;-62
2022/09/17 09:08:50;;;;;;;11.85;1.83;;;12.50;99.90;;;;;;5132550;27;20039;-61
2022/09/17 09:11:27;;;;;;;11.45;1.88;;;13.10;99.90;;;;;;5132250;27;20043;-61
2022/09/17 09:13:56;;;;;;;13.15;1.65;;;12.30;99.90;;;;;;5131070;27;20044;-61
2022/09/17 09:16:25;;;;;;;20.88;2.22;;;12.50;99.90;;;;;;5133095;28;20439;-61
2022/09/17 09:18:58;;;;;;;13.85;2.58;;;12.10;99.90;;;;;;5133194;28;20156;-61
2022/09/17 09:21:29;;;;;;;22.83;2.50;;;11.80;99.90;;;;;;5132521;28;20103;-61
2022/09/17 09:24:25;;;;;;;13.13;2.55;;;12.30;99.90;;;;;;5132840;28;20459;-61
2022/09/17 09:27:22;;;;;;;24.00;3.47;;;12.40;99.90;;;;;;5114766;28;20064;-63
2022/09/17 09:29:48;;;;;;;;;;;12.80;99.90;;;;;;5133336;28;20093;-62
2022/09/17 09:32:31;;;;;;;14.68;2.13;;;13.30;99.90;;;;;;5132060;28;20460;-61
2022/09/17 09:35:00;;;;;;;16.58;2.90;;;13.10;99.90;;;;;;5132636;28;20051;-61
2022/09/17 09:37:33;;;;;;;16.63;2.53;;;13.80;99.90;;;;;;5128572;28;20043;-63
2022/09/17 09:40:27;;;;;;;17.20;2.75;;;13.80;99.90;;;;;;5132318;28;20039;-61
2022/09/17 09:42:58;;;;;;;20.13;2.83;;;14.40;99.90;;;;;;5130456;28;20051;-62
2022/09/17 09:45:36;;;;;;;10.65;1.95;;;14.40;99.90;;;;;;5113912;28;20062;-62
2022/09/17 09:48:29;;;;;;;9.38;2.10;;;15.00;99.90;;;;;;5131784;27;20043;-61
2022/09/17 09:51:07;;;;;;;9.20;1.90;;;15.10;99.90;;;;;;5135256;27;20047;-61
2022/09/17 09:53:41;;;;;;;13.32;1.95;;;14.80;99.90;;;;;;5135016;27;20219;-61
2022/09/17 09:56:45;;;;;;;16.77;2.95;;;14.60;99.90;;;;;;5136473;27;20046;-61
2022/09/17 09:59:12;;;;;;;12.15;2.38;;;14.60;99.90;;;;;;5135782;27;20126;-64
2022/09/17 10:01:41;;;;;;;18.75;3.10;;;14.70;99.90;;;;;;5135631;27;20047;-60
2022/09/17 10:04:23;;;;;;;12.93;2.63;;;14.90;99.90;;;;;;5135734;27;20503;-66
2022/09/17 10:06:52;;;;;;;10.10;2.45;;;14.60;99.90;;;;;;5136133;27;20394;-62
2022/09/17 10:09:20;;;;;;;13.65;2.53;;;14.60;99.90;;;;;;5135708;27;20104;-62
2022/09/17 10:12:09;;;;;;;14.25;2.20;;;14.10;99.90;;;;;;5135904;27;20047;-62
2022/09/17 10:14:47;;;;;;;12.25;2.15;;;14.10;99.90;;;;;;5135464;27;20108;-61
2022/09/17 10:17:18;;;;;;;12.20;2.45;;;15.40;99.90;;;;;;5135517;27;20047;-61
2022/09/17 10:19:45;;;;;;;16.92;2.72;;;13.80;99.90;;;;;;5135670;27;20043;-63
2022/09/17 10:22:17;;;;;;;15.65;2.70;;;13.70;99.90;;;;;;5116878;27;20050;-63
2022/09/17 10:24:42;;;;;;;18.70;3.13;;;13.80;99.90;;;;;;5135289;27;20483;-63
2022/09/17 10:27:16;;;;;;;21.55;3.08;;;14.10;99.90;;;;;;5116958;27;20088;-61
2022/09/17 10:29:44;;;;;;;13.88;2.70;;;13.50;99.90;;;;;;5135125;27;20059;-65
2022/09/17 10:32:19;;;;;;;18.33;2.50;;;13.40;99.90;;;;;;5135042;27;20051;-61
2022/09/17 10:35:03;;;;;;;23.17;3.22;;;13.60;99.90;;;;;;5135048;27;20048;-63
2022/09/17 10:37:54;;;;;;;25.70;4.18;;;13.80;99.90;;;;;;5134861;27;20044;-62
2022/09/17 10:40:25;;;;;;;9.93;2.28;;;14.40;99.90;;;;;;5129708;27;20453;-62
2022/09/17 10:43:13;;;;;;;12.85;2.50;;;14.90;99.90;;;;;;5134922;27;20585;-66
2022/09/17 10:45:41;;;;;;;;;;;14.90;99.90;;;;;;5135294;27;20125;-63
2022/09/17 10:48:15;;;;;;;10.77;2.05;;;15.50;99.90;;;;;;5134773;27;20753;-65
2022/09/17 10:50:51;;;;;;;14.50;2.40;;;15.60;99.90;;;;;;5134909;27;20043;-61
2022/09/17 10:53:21;;;;;;;13.80;2.27;;;15.60;99.90;;;;;;5116371;27;20056;-67
2022/09/17 10:56:11;;;;;;;10.05;2.00;;;15.80;99.90;;;;;;5134646;27;20078;-65
2022/09/17 10:58:51;;;;;;;15.68;2.05;;;14.90;99.90;;;;;;5134861;27;20051;-63
2022/09/17 11:01:43;;;;;;;10.50;1.83;;;14.40;99.90;;;;;;5134701;27;20213;-62
2022/09/17 11:04:20;;;;;;;10.02;2.03;;;15.00;99.90;;;;;;5134512;27;20077;-62
2022/09/17 11:06:48;;;;;;;;;;;14.80;99.90;;;;;;5116707;27;20398;-61
2022/09/17 11:09:34;;;;;;;7.72;2.00;;;14.80;99.90;;;;;;5134791;27;20361;-62
2022/09/17 11:12:00;;;;;;;14.43;2.30;;;14.80;99.90;;;;;;5081736;27;20061;-64
2022/09/17 11:14:56;;;;;;;9.52;1.65;;;15.20;99.90;;;;;;5134088;27;20047;-61
2022/09/17 11:17:52;;;;;;;11.90;2.25;;;15.20;99.90;;;;;;5134542;27;20101;-62
2022/09/17 11:20:36;;;;;;;11.93;1.70;;;14.80;99.90;;;;;;5116316;27;20475;-63
2022/09/17 11:23:40;;;;;;;13.60;1.85;;;15.20;99.90;;;;;;5134232;27;20051;-64
2022/09/17 11:26:25;;;;;;;11.40;2.53;;;15.30;99.90;;;;;;5115948;27;20135;-63
2022/09/17 11:29:23;;;;;;;9.90;2.38;;;15.50;99.90;;;;;;5081027;27;20525;-63
2022/09/17 11:32:12;;;;;;;15.25;2.40;;;15.80;99.90;;;;;;5077244;28;20052;-62
2022/09/17 11:34:43;;;;;;;12.23;2.33;;;15.80;99.90;;;;;;5113788;28;20059;-64
2022/09/17 11:37:24;;;;;;;12.88;1.80;;;15.30;99.90;;;;;;5113969;28;20048;-63
2022/09/17 11:40:32;;;;;;;17.15;2.50;;;15.10;99.90;;;;;;5113826;28;20077;-66
2022/09/17 11:43:18;;;;;;;13.40;2.47;;;15.40;99.90;;;;;;5108832;28;20066;-62
2022/09/17 11:46:04;;;;;;;19.42;3.35;;;15.30;99.90;;;;;;5114062;28;20084;-63
2022/09/17 11:48:45;;;;;;;16.92;2.55;;;15.60;99.90;;;;;;5098963;28;20055;-65
2022/09/17 11:51:19;;;;;;;14.60;2.40;;;15.10;99.90;;;;;;5113538;28;20036;-66
2022/09/17 11:53:55;;;;;;;14.50;2.95;;;15.00;99.90;;;;;;5113634;28;20035;-63
2022/09/17 11:56:40;;;;;;;16.20;2.88;;;15.70;99.90;;;;;;5113335;27;20494;-65
2022/09/17 11:59:11;;;;;;;15.88;1.90;;;15.50;99.90;;;;;;5113663;28;20051;-62
2022/09/17 12:01:57;;;;;;;9.95;2.67;;;15.80;99.90;;;;;;5113630;28;20139;-63
2022/09/17 12:05:01;;;;;;;11.63;1.80;;;15.70;99.90;;;;;;5112222;28;20510;-64
2022/09/17 12:07:36;;;;;;;11.38;2.22;;;15.50;99.90;;;;;;5030436;28;20177;-66
2022/09/17 12:10:18;;;;;;;17.15;2.92;;;15.60;99.90;;;;;;5102887;28;20055;-64
2022/09/17 12:12:54;;;;;;;13.07;2.10;;;15.80;99.90;;;;;;5112632;28;20048;-62
2022/09/17 12:15:23;;;;;;;16.30;2.17;;;15.80;99.90;;;;;;5113572;28;20050;-62
2022/09/17 12:18:33;;;;;;;10.98;2.33;;;16.00;99.90;;;;;;5113346;28;20047;-64
2022/09/17 12:21:03;;;;;;;13.18;1.98;;;16.00;99.90;;;;;;5086566;28;20055;-63
2022/09/17 12:23:51;;;;;;;11.23;1.90;;;16.10;99.90;;;;;;5113588;28;20054;-63
2022/09/17 12:26:38;;;;;;;16.02;2.25;;;16.20;99.90;;;;;;5113346;28;20044;-64
2022/09/17 12:29:36;;;;;;;;;;;16.40;99.90;;;;;;5113769;28;20051;-63
2022/09/17 12:32:23;;;;;;;13.18;2.35;;;16.10;99.90;;;;;;5078276;28;19923;-63
2022/09/17 12:34:52;;;;;;;;;;;15.30;99.90;;;;;;5113535;28;20048;-64
2022/09/17 12:37:36;;;;;;;16.95;2.50;;;15.80;99.90;;;;;;5112992;28;20379;-65
2022/09/17 12:40:11;;;;;;;12.25;2.20;;;15.50;99.90;;;;;;5112372;28;20512;-65
2022/09/17 12:43:04;;;;;;;16.38;2.80;;;15.50;99.90;;;;;;5112863;28;20036;-64
2022/09/17 12:46:21;;;;;;;14.25;2.97;;;15.70;99.90;;;;;;5076949;28;20056;-63
2022/09/17 12:48:47;;;;;;;10.95;2.65;;;16.20;99.90;;;;;;5029741;28;20160;-63
2022/09/17 12:51:17;;;;;;;;;;;16.30;99.90;;;;;;5012463;28;20084;-62
2022/09/17 12:54:05;;;;;;;17.08;2.70;;;16.00;99.90;;;;;;5068485;28;19919;-62
2022/09/17 12:57:04;;;;;;;14.90;2.50;;;16.40;99.90;;;;;;5111316;28;20044;-64
2022/09/17 12:59:33;;;;;;;12.88;2.65;;;16.60;99.90;;;;;;5112679;28;20055;-63
2022/09/17 13:02:50;;;;;;;13.98;2.72;;;16.60;99.90;;;;;;5112345;28;20555;-63
2022/09/17 13:05:57;;;;;;;14.52;2.47;;;16.90;99.90;;;;;;5029519;28;20409;-63
2022/09/17 13:08:26;;;;;;;11.25;2.25;;;16.30;99.90;;;;;;5029489;28;20057;-67
2022/09/17 13:11:06;;;;;;;7.88;1.98;;;16.40;99.90;;;;;;5100156;28;20138;-63
2022/09/17 13:14:10;;;;;;;13.93;2.10;;;16.20;99.90;;;;;;5112458;28;20036;-63